sensor_id;sensor_type;location;lat;lon;timestamp;P1;durP1;ratioP1;P2;durP2;ratioP2
38190;SDS011;25191;47.510;19.124;2022-09-13T00:00:28;2.42;;;1.50;;
38190;SDS011;25191;47.510;19.124;2022-09-13T00:10:29;1.40;;;1.30;;
38190;SDS011;25191;47.510;19.124;2022-09-13T00:20:29;1.47;;;1.20;;
38190;SDS011;25191;47.510;19.124;2022-09-13T00:30:30;1.83;;;1.25;;
38190;SDS011;25191;47.510;19.124;2022-09-13T00:40:35;3.03;;;1.60;;
38190;SDS011;25191;47.510;19.124;2022-09-13T00:50:37;1.20;;;1.10;;
38190;SDS011;25191;47.510;19.124;2022-09-13T01:00:42;4.43;;;1.30;;
38190;SDS011;25191;47.510;19.124;2022-09-13T01:10:43;1.40;;;1.30;;
38190;SDS011;25191;47.510;19.124;2022-09-13T02:12:02;1.70;;;1.30;;
38190;SDS011;25191;47.510;19.124;2022-09-13T02:22:09;1.20;;;1.10;;
38190;SDS011;25191;47.510;19.124;2022-09-13T02:32:17;2.08;;;1.50;;
38190;SDS011;25191;47.510;19.124;2022-09-13T02:42:20;1.98;;;1.30;;
38190;SDS011;25191;47.510;19.124;2022-09-13T03:02:44;1.38;;;1.27;;
38190;SDS011;25191;47.510;19.124;2022-09-13T03:12:54;2.25;;;1.20;;
38190;SDS011;25191;47.510;19.124;2022-09-13T03:43:44;1.80;;;1.45;;
38190;SDS011;25191;47.510;19.124;2022-09-13T03:53:52;1.73;;;1.63;;
38190;SDS011;25191;47.510;19.124;2022-09-13T04:03:57;2.22;;;1.50;;
38190;SDS011;25191;47.510;19.124;2022-09-13T04:13:58;1.35;;;1.23;;
38190;SDS011;25191;47.510;19.124;2022-09-13T04:23:58;4.80;;;1.40;;
38190;SDS011;25191;47.510;19.124;2022-09-13T04:33:59;3.42;;;1.48;;
38190;SDS011;25191;47.510;19.124;2022-09-13T04:54:01;12.10;;;2.80;;
38190;SDS011;25191;47.510;19.124;2022-09-13T05:04:02;6.20;;;2.40;;
38190;SDS011;25191;47.510;19.124;2022-09-13T05:14:05;12.07;;;2.63;;
38190;SDS011;25191;47.510;19.124;2022-09-13T05:24:06;8.48;;;2.25;;
38190;SDS011;25191;47.510;19.124;2022-09-13T05:34:07;10.48;;;2.78;;
38190;SDS011;25191;47.510;19.124;2022-09-13T05:44:12;4.28;;;2.15;;
38190;SDS011;25191;47.510;19.124;2022-09-13T05:54:13;11.40;;;2.53;;
38190;SDS011;25191;47.510;19.124;2022-09-13T06:04:13;4.97;;;2.15;;
38190;SDS011;25191;47.510;19.124;2022-09-13T06:14:14;4.57;;;1.92;;
38190;SDS011;25191;47.510;19.124;2022-09-13T06:24:14;5.20;;;2.38;;
38190;SDS011;25191;47.510;19.124;2022-09-13T06:34:15;3.70;;;1.95;;
38190;SDS011;25191;47.510;19.124;2022-09-13T06:44:17;5.38;;;2.35;;
38190;SDS011;25191;47.510;19.124;2022-09-13T06:54:17;5.43;;;2.30;;
38190;SDS011;25191;47.510;19.124;2022-09-13T07:04:19;4.75;;;2.20;;
38190;SDS011;25191;47.510;19.124;2022-09-13T07:14:20;5.00;;;1.90;;
38190;SDS011;25191;47.510;19.124;2022-09-13T07:24:23;5.47;;;2.03;;
38190;SDS011;25191;47.510;19.124;2022-09-13T07:34:24;4.23;;;1.83;;
38190;SDS011;25191;47.510;19.124;2022-09-13T07:44:27;3.55;;;2.15;;
38190;SDS011;25191;47.510;19.124;2022-09-13T07:54:28;5.60;;;2.63;;
38190;SDS011;25191;47.510;19.124;2022-09-13T08:04:29;5.37;;;3.97;;
38190;SDS011;25191;47.510;19.124;2022-09-13T08:14:29;7.78;;;5.70;;
38190;SDS011;25191;47.510;19.124;2022-09-13T08:24:30;9.18;;;6.07;;
38190;SDS011;25191;47.510;19.124;2022-09-13T08:34:30;6.88;;;5.45;;
38190;SDS011;25191;47.510;19.124;2022-09-13T08:54:36;7.47;;;6.30;;
38190;SDS011;25191;47.510;19.124;2022-09-13T09:04:42;9.23;;;4.80;;
38190;SDS011;25191;47.510;19.124;2022-09-13T09:14:56;7.45;;;5.03;;
38190;SDS011;25191;47.510;19.124;2022-09-13T09:25:02;7.18;;;4.30;;
38190;SDS011;25191;47.510;19.124;2022-09-13T10:16:26;4.97;;;4.03;;
38190;SDS011;25191;47.510;19.124;2022-09-13T10:26:28;6.18;;;5.03;;
38190;SDS011;25191;47.510;19.124;2022-09-13T10:36:36;6.43;;;4.82;;
38190;SDS011;25191;47.510;19.124;2022-09-13T10:46:37;5.38;;;3.58;;
38190;SDS011;25191;47.510;19.124;2022-09-13T10:56:39;7.47;;;4.85;;
38190;SDS011;25191;47.510;19.124;2022-09-13T11:06:45;6.03;;;4.38;;
38190;SDS011;25191;47.510;19.124;2022-09-13T11:27:20;7.40;;;3.97;;
38190;SDS011;25191;47.510;19.124;2022-09-13T11:58:22;3.33;;;2.00;;
38190;SDS011;25191;47.510;19.124;2022-09-13T12:08:29;6.15;;;2.60;;
38190;SDS011;25191;47.510;19.124;2022-09-13T12:18:44;5.20;;;1.88;;
38190;SDS011;25191;47.510;19.124;2022-09-13T12:28:48;4.03;;;1.73;;
38190;SDS011;25191;47.510;19.124;2022-09-13T12:39:01;2.65;;;1.70;;
38190;SDS011;25191;47.510;19.124;2022-09-13T12:49:15;12.07;;;2.13;;
38190;SDS011;25191;47.510;19.124;2022-09-13T13:19:42;1.83;;;1.60;;
38190;SDS011;25191;47.510;19.124;2022-09-13T13:39:47;5.20;;;1.77;;
38190;SDS011;25191;47.510;19.124;2022-09-13T13:50:16;4.63;;;1.60;;
38190;SDS011;25191;47.510;19.124;2022-09-13T14:20:55;3.13;;;1.52;;
38190;SDS011;25191;47.510;19.124;2022-09-13T14:31:03;7.85;;;1.55;;
38190;SDS011;25191;47.510;19.124;2022-09-13T14:41:11;1.40;;;1.30;;
38190;SDS011;25191;47.510;19.124;2022-09-13T14:51:20;3.35;;;1.65;;
38190;SDS011;25191;47.510;19.124;2022-09-13T15:01:29;1.53;;;1.43;;
38190;SDS011;25191;47.510;19.124;2022-09-13T15:11:34;2.03;;;1.35;;
38190;SDS011;25191;47.510;19.124;2022-09-13T15:21:35;8.02;;;1.60;;
38190;SDS011;25191;47.510;19.124;2022-09-13T15:31:36;7.82;;;1.25;;
38190;SDS011;25191;47.510;19.124;2022-09-13T15:41:37;1.58;;;1.48;;
38190;SDS011;25191;47.510;19.124;2022-09-13T15:51:40;1.65;;;1.30;;
38190;SDS011;25191;47.510;19.124;2022-09-13T16:01:42;2.28;;;1.33;;
38190;SDS011;25191;47.510;19.124;2022-09-13T16:11:44;4.85;;;1.17;;
38190;SDS011;25191;47.510;19.124;2022-09-13T16:21:46;2.70;;;1.50;;
38190;SDS011;25191;47.510;19.124;2022-09-13T16:31:47;1.88;;;1.50;;
38190;SDS011;25191;47.510;19.124;2022-09-13T16:41:48;2.20;;;1.40;;
38190;SDS011;25191;47.510;19.124;2022-09-13T16:51:48;4.25;;;1.45;;
38190;SDS011;25191;47.510;19.124;2022-09-13T17:01:50;7.57;;;2.00;;
38190;SDS011;25191;47.510;19.124;2022-09-13T17:11:50;5.43;;;1.88;;
38190;SDS011;25191;47.510;19.124;2022-09-13T17:21:51;11.48;;;2.10;;
38190;SDS011;25191;47.510;19.124;2022-09-13T17:32:00;13.18;;;2.40;;
38190;SDS011;25191;47.510;19.124;2022-09-13T17:42:01;5.35;;;2.20;;
38190;SDS011;25191;47.510;19.124;2022-09-13T17:52:01;5.83;;;2.60;;
38190;SDS011;25191;47.510;19.124;2022-09-13T18:02:02;7.70;;;3.40;;
38190;SDS011;25191;47.510;19.124;2022-09-13T18:12:03;14.52;;;5.10;;
38190;SDS011;25191;47.510;19.124;2022-09-13T18:22:05;37.38;;;20.17;;
38190;SDS011;25191;47.510;19.124;2022-09-13T18:32:07;28.08;;;14.82;;
38190;SDS011;25191;47.510;19.124;2022-09-13T18:42:07;31.95;;;15.38;;
38190;SDS011;25191;47.510;19.124;2022-09-13T18:52:08;25.13;;;14.25;;
38190;SDS011;25191;47.510;19.124;2022-09-13T19:02:10;19.50;;;12.15;;
38190;SDS011;25191;47.510;19.124;2022-09-13T19:12:12;21.40;;;12.13;;
38190;SDS011;25191;47.510;19.124;2022-09-13T19:22:13;22.40;;;10.52;;
38190;SDS011;25191;47.510;19.124;2022-09-13T19:32:13;14.50;;;9.23;;
38190;SDS011;25191;47.510;19.124;2022-09-13T19:42:14;12.90;;;8.23;;
38190;SDS011;25191;47.510;19.124;2022-09-13T19:52:14;12.85;;;7.63;;
38190;SDS011;25191;47.510;19.124;2022-09-13T20:02:15;10.13;;;6.50;;
38190;SDS011;25191;47.510;19.124;2022-09-13T20:12:21;10.80;;;6.85;;
38190;SDS011;25191;47.510;19.124;2022-09-13T20:22:22;11.50;;;6.18;;
38190;SDS011;25191;47.510;19.124;2022-09-13T20:32:22;9.05;;;6.10;;
38190;SDS011;25191;47.510;19.124;2022-09-13T20:42:23;10.07;;;5.40;;
38190;SDS011;25191;47.510;19.124;2022-09-13T20:52:23;9.40;;;5.63;;
38190;SDS011;25191;47.510;19.124;2022-09-13T21:02:25;6.72;;;4.60;;
38190;SDS011;25191;47.510;19.124;2022-09-13T21:12:26;8.30;;;5.03;;
38190;SDS011;25191;47.510;19.124;2022-09-13T21:22:26;7.43;;;5.00;;
38190;SDS011;25191;47.510;19.124;2022-09-13T21:32:28;6.32;;;4.60;;
38190;SDS011;25191;47.510;19.124;2022-09-13T21:42:28;6.53;;;4.40;;
38190;SDS011;25191;47.510;19.124;2022-09-13T21:52:30;6.93;;;4.57;;
38190;SDS011;25191;47.510;19.124;2022-09-13T22:02:30;7.72;;;4.28;;
38190;SDS011;25191;47.510;19.124;2022-09-13T22:12:31;4.80;;;4.17;;
38190;SDS011;25191;47.510;19.124;2022-09-13T22:22:32;4.20;;;3.80;;
38190;SDS011;25191;47.510;19.124;2022-09-13T22:32:32;4.22;;;3.55;;
38190;SDS011;25191;47.510;19.124;2022-09-13T22:42:33;5.82;;;3.83;;
38190;SDS011;25191;47.510;19.124;2022-09-13T22:52:34;4.20;;;3.75;;
38190;SDS011;25191;47.510;19.124;2022-09-13T23:02:34;6.20;;;3.80;;
38190;SDS011;25191;47.510;19.124;2022-09-13T23:12:35;4.40;;;3.53;;
38190;SDS011;25191;47.510;19.124;2022-09-13T23:22:36;3.57;;;3.27;;
38190;SDS011;25191;47.510;19.124;2022-09-13T23:32:36;5.40;;;3.10;;
38190;SDS011;25191;47.510;19.124;2022-09-13T23:42:37;3.77;;;3.23;;
38190;SDS011;25191;47.510;19.124;2022-09-13T23:52:37;3.65;;;3.10;;
